Interlachen, Oregon
Current Conditions -  °F | °C
As of 2:53 PM on Friday 19 Dec 2014 (Local Time) from KTTD Reporting Station
Broken Clouds Broken Clouds  
Wind Chill: 54°   Ceiling: 4500
Heat Index: 54°   Visibility: 10mi
Dew Point: 41°   Wind: 8mph
Humidity: 62%   Direction: 210°SSW
Pressure: 29.99"   Gusts: NA
Location:  45.5383°N, 122.434°W
Report Text: KTTD 192253Z 21007KT 10SM SCT034 BKN045 BKN075 12/05 A2999 RMK AO2 SLP156 T01220050
Loading
Personal Weather Stations






























Interactive Weather Map New forecast layout! Learn more

10-Day Weather Forecast

Advertisements
Track Severe Weather on mobile